Weather observations for the past three days for
Socorro Municipal Airport
Metric (Imperial)
Date Time (mdt) Wind (kph) Vis. (km) Weather Sky Cond. Temperature (ºC) Relative Humidity Wind Chill (°C) Heat Index (°C) Pressure Precipitation (cm)
Air Dwpt 6 hour altimeter (cm) sea level (mb) 1 hr 3 hr 6 hr
Max. Min.
02 16:55 E 26 16.09 Partly Cloudy SCT060 19 1.2 31% 76.63 0.0
02 16:35 SE 7 16.09 Fair CLR 18.2 0.1 30% 76.63 0.0
02 16:15 S 9 16.09 Fair CLR 18.1 0.2 30% 76.63 0.0
02 15:55 W 13 16.09 Fair CLR 17.9 0.9 32% 76.66 0.0
02 15:35 W 17 G 28 16.09 Fair CLR 17.6 1 33% 76.71 0.0
02 15:15 W 20 16.09 Partly Cloudy SCT090 17.9 1.6 34% 76.73 0.0
02 14:55 W 24 G 37 16.09 Mostly Cloudy SCT060 BKN085 17.3 1.9 36% 76.73 0.0
02 14:35 W 20 G 30 16.09 Overcast BKN060 OVC085 17.7 1.1 33% 76.73 0.0
02 14:15 Calm 16.09 Overcast SCT060 OVC085 17.8 0 30% 76.73 0.0
02 13:55 E 11 16.09 Overcast BKN060 BKN070 OVC085 18 0 30% 76.73 0.0
02 13:35 Calm 16.09 Overcast OVC095 18.6 0.1 29% 76.76 0.0
02 13:15 N 9 16.09 Overcast SCT070 BKN095 OVC120 16.9 0.1 32% 76.76 0.0
02 12:55 Calm 16.09 Overcast OVC110 16.5 0.2 33% 76.78 0.0
02 12:35 NE 13 16.09 Overcast OVC100 17.3 0.6 33% 76.81 0.0
02 12:15 NW 6 16.09 Overcast SCT070 OVC100 16.2 0.9 36% 76.84 0.0
02 11:55 N 11 16.09 Overcast OVC100 15.9 0.9 16.2 9.6 36% 76.86 0.0
02 11:35 N 15 16.09 Overcast OVC110 15.5 1.2 38% 76.86 0.0
02 11:15 NE 7 16.09 Overcast SCT044 OVC120 15.7 1 37% 76.89 0.0
02 10:55 NE 7 16.09 Overcast SCT044 OVC120 15.2 1.1 39% 76.89 0.0
02 10:35 N 11 16.09 Overcast SCT090 OVC120 14.5 1.2 41% 76.89 0.0
02 10:15 N 13 16.09 Mostly Cloudy BKN090 BKN120 13.6 1 43% 76.86 0.0
02 09:55 NE 7 16.09 Overcast BKN100 OVC120 13 0.8 44% 76.86 0.0
02 09:35 N 11 16.09 Overcast OVC110 12.4 1 46% 76.86 0.0
02 09:15 N 11 16.09 Overcast SCT070 OVC110 11.9 1 48% 76.86 0.0
02 08:55 NW 7 16.09 Overcast OVC070 11.6 0.8 48% 76.86 0.0
02 08:35 N 7 16.09 Mostly Cloudy SCT070 BKN110 11.2 0.7 49% 76.86 0.0
02 08:15 N 7 16.09 Mostly Cloudy BKN120 11.2 1 50% 76.86 0.0
02 07:55 Calm 16.09 Mostly Cloudy BKN120 10.5 0.9 52% 76.86 0.0
02 07:35 NE 7 16.09 Overcast OVC120 10.5 1 52% 76.84 0.0
02 07:15 Calm 16.09 Overcast SCT043 OVC110 10 1 54% 76.86 0.0
02 06:55 N 6 16.09 Overcast OVC043 9.7 0.8 54% 76.84 0.0
02 06:35 NE 11 16.09 Mostly Cloudy BKN043 BKN100 9.8 0.7 53% 8 76.81 0.0
02 06:15 NE 13 16.09 Mostly Cloudy BKN110 9.6 0.6 54% 8 76.78 0.0
02 05:55 NE 11 16.09 Overcast OVC120 9.5 0.6 10 8.6 54% 8 76.78 0.0
02 05:35 NE 9 16.09 Mostly Cloudy BKN110 9.4 0.8 55% 8 76.78 0.0
02 05:15 N 9 16.09 Partly Cloudy SCT120 9.3 0.8 56% 8 76.78 0.0
02 04:55 N 11 16.09 Fair CLR 9.5 1 56% 8 76.76 0.0
02 04:35 N 7 16.09 Partly Cloudy SCT110 9.6 1.1 56% 9 76.76 0.0
02 04:15 N 9 16.09 Overcast OVC110 9.6 1.2 56% 9 76.76 0.0
02 03:55 N 9 16.09 Overcast SCT065 SCT075 OVC110 9.7 1.2 56% 9 76.76 0.0
02 03:35 NW 7 16.09 Overcast SCT065 BKN075 OVC110 9.7 1.3 56% 9 76.76 0.0
02 03:15 N 7 16.09 Overcast BKN085 OVC110 9.6 1.2 56% 9 76.76 0.0
02 02:55 N 7 16.09 Overcast OVC120 9.6 1.2 56% 9 76.76 0.0
02 02:35 N 7 16.09 Mostly Cloudy BKN120 9.6 1.2 56% 9 76.76 0.0
02 02:15 N 6 16.09 Mostly Cloudy BKN120 9.6 1.2 56% 76.76 0.0
02 01:55 N 9 16.09 Mostly Cloudy BKN120 9.7 1.1 55% 9 76.76 0.0
02 01:35 NW 11 16.09 Overcast OVC120 9.9 1.1 55% 9 76.76 0.0
02 01:15 W 7 16.09 Overcast OVC110 9.2 2.5 63% 8 76.73 0.0
02 00:55 W 7 16.09 Overcast OVC120 9.1 2.7 65% 8 76.73 0.0
02 00:35 SW 11 16.09 Overcast OVC110 9 3.1 67% 8 76.73 0.0
02 00:15 SW 6 16.09 Mostly Cloudy BKN120 8.9 3.5 69% 76.73 0.0
01 23:55 SW 6 16.09 Partly Cloudy SCT120 8.7 4.4 15.5 8.7 75% 76.73 0.0
01 23:35 SW 7 16.09 Partly Cloudy SCT100 SCT120 8.8 4.6 75% 8 76.73 0.0
01 23:15 SW 7 16.09 Overcast SCT060 BKN100 OVC120 9.5 4.9 73% 9 76.73 0.0
01 22:55 SE 6 16.09 Light Rain BKN060 OVC070 10 3.8 66% 76.73 0.0
01 22:35 Calm 16.09 Overcast BKN075 OVC095 10.5 1.6 54% 76.73 0.0
01 22:15 NE 9 16.09 Overcast OVC095 10.5 1.7 55% 76.71 0.0
01 21:55 N 13 16.09 Overcast SCT095 OVC110 10.7 1.8 54% 76.68 0.0
01 21:35 E 9 16.09 Overcast OVC120 10.7 1.9 55% 76.66 0.0
01 21:15 N 9 16.09 Mostly Cloudy BKN120 10.8 1.9 54% 76.63 0.0
01 20:55 E 6 16.09 Partly Cloudy SCT090 SCT120 11 1.7 53% 76.58 0.0
01 20:35 Calm 16.09 Mostly Cloudy SCT100 BKN120 11.5 1.8 52% 76.58 0.0
01 20:15 SE 11 16.09 Overcast OVC100 12.1 1.6 49% 76.53 0.0
01 19:55 E 6 16.09 Mostly Cloudy BKN100 BKN120 12.5 1.6 48% 76.53 0.0
01 19:35 E 13 G 30 16.09 Mostly Cloudy BKN120 12.7 1.7 47% 76.48 0.0
01 19:15 E 24 G 33 16.09 Mostly Cloudy BKN120 13.4 1.6 45% 76.43 0.0
01 18:55 E 22 G 30 16.09 Partly Cloudy SCT120 14.3 1.3 42% 76.43 0.0
01 18:35 E 22 G 31 16.09 Mostly Cloudy SCT070 BKN120 14.7 1.4 41% 76.38 0.0
01 18:15 E 19 16.09 Partly Cloudy SCT070 15.3 1 38% 76.35 0.0
01 17:55 E 20 16.09 Mostly Cloudy BKN055 BKN070 15.5 1.1 18.2 14 38% 76.35 0.0
01 17:35 E 26 G 33 16.09 Overcast OVC055 16.2 0.9 36% 76.33 0.0
01 17:15 E 26 G 33 16.09 Overcast OVC055 17.2 1 34% 76.33 0.0
01 16:55 E 22 G 30 16.09 Mostly Cloudy BKN055 BKN065 BKN100 16.8 0.9 34% 76.33 0.0
01 16:35 E 19 16.09 Mostly Cloudy SCT050 SCT065 BKN110 17.3 1.2 34% 76.33 0.0
01 16:15 E 15 G 30 16.09 Overcast SCT049 SCT085 OVC110 16.7 1.4 36% 76.33 0.0
01 15:55 SE 11 16.09 Mostly Cloudy BKN049 BKN110 16.2 1.6 38% 76.33 0.0
01 15:35 E 20 G 28 16.09 Mostly Cloudy BKN049 16.6 1.5 36% 76.33 0.0
01 15:15 E 19 G 31 16.09 Overcast OVC049 17.1 1.4 35% 76.33 0.0
01 14:55 SE 13 G 28 16.09 Mostly Cloudy BKN049 17.7 1.5 34% 76.33 0.0
01 14:35 E 20 G 35 16.09 Mostly Cloudy BKN047 BKN055 17.9 1.6 34% 76.35 0.0
01 14:15 E 11 G 31 16.09 Mostly Cloudy BKN047 BKN120 16.4 1.5 37% 76.38 0.0
01 13:55 E 19 16.09 Overcast BKN047 OVC050 16.1 1.7 38% 76.38 0.0
01 13:35 E 17 G 28 16.09 Overcast BKN045 OVC050 16.2 1.7 38% 76.4 0.0
01 13:15 E 11 16.09 Overcast BKN042 OVC048 15.2 2.1 41% 76.43 0.0
01 12:55 E 15 16.09 Overcast OVC040 14.3 2.5 45% 76.45 0.0
01 12:35 E 11 G 28 16.09 Overcast OVC040 14 2.4 46% 76.45 0.0
01 11:55 E 22 16.09 Overcast OVC038 14.1 2.6 14.1 9.7 46% 76.45 0.0
01 11:35 Calm 16.09 Overcast OVC038 13.3 2.3 48% 76.45 0.0
01 11:15 N 11 16.09 Overcast OVC038 13.5 2.3 47% 76.43 0.0
01 10:55 N 13 16.09 Overcast OVC036 13 2.3 48% 76.43 0.0
01 10:35 NE 6 16.09 Overcast BKN038 BKN045 OVC055 12.8 2.2 49% 76.43 0.0
01 10:15 N 13 16.09 Overcast SCT039 BKN045 OVC055 12.6 2.2 49% 76.4 0.0
01 09:55 N 13 16.09 Overcast OVC048 12 2.2 51% 76.4 0.0
01 09:35 N 15 16.09 Overcast OVC048 11.1 2 54% 76.38 0.0
01 09:15 N 17 16.09 Overcast OVC048 11.1 2 54% 76.38 0.0
01 08:55 NW 19 16.09 Overcast OVC046 11 2 54% 76.35 0.0
01 08:35 N 15 16.09 Overcast OVC046 10.6 2 56% 76.35 0.0
01 08:15 NW 15 16.09 Overcast OVC044 10.2 2 57% 76.35 0.0
01 07:55 NW 19 16.09 Overcast OVC042 10 2.2 59% 8 76.33 0.0
01 07:35 N 15 16.09 Overcast OVC040 10.1 2.3 59% 76.3 0.0
01 07:15 N 13 16.09 Overcast OVC038 9.7 2.5 61% 8 76.3 0.0
01 06:55 N 17 16.09 Overcast OVC034 9.8 2.5 61% 8 76.28 0.0
01 06:35 N 20 G 28 16.09 Overcast BKN032 OVC041 10.1 2.5 60% 76.25 0.0
01 06:15 N 20 16.09 Overcast BKN032 OVC041 10.3 2.6 59% 76.23 0.0
01 05:55 N 22 G 31 16.09 Overcast OVC039 10.5 2.8 15.7 10.5 59% 76.2 0.0
01 05:35 N 20 16.09 Overcast BKN035 OVC042 11.1 3 58% 76.17 0.0
01 05:15 N 19 16.09 Overcast BKN035 OVC041 11.3 3 57% 76.17 0.0
01 04:55 NE 17 G 31 16.09 Overcast OVC033 11.9 3.8 58% 76.12 0.0
01 04:35 N 15 G 28 16.09 Overcast OVC036 13.2 4.9 57% 76.12 0.0
01 04:15 NE 11 16.09 Overcast OVC036 13.6 5.5 58% 76.07 0.0
01 03:55 NE 7 16.09 Overcast OVC036 13.5 5.5 59% 76.07 0.0
01 03:35 E 15 G 33 16.09 Overcast OVC038 13.5 5.5 59% 76.07 0.0
01 03:15 E 17 G 30 16.09 Overcast BKN040 OVC048 13.6 5.2 57% 76.05 0.0
01 02:55 SE 11 16.09 Thunderstorm in Vicinity BKN042 OVC048 13.6 5.1 57% 76.05 0.0
01 02:35 E 13 16.09 Overcast SCT040 OVC048 13.8 5 56% 76.05 0.0
01 02:15 E 7 16.09 Overcast BKN040 OVC048 14.3 5.1 54% 76.05 0.0
01 01:55 SE 11 16.09 Overcast OVC040 14.5 5 53% 76.05 0.0
01 01:35 SE 20 16.09 Overcast OVC038 15.2 6.5 56% 76.02 0.0
01 01:15 SE 20 16.09 Overcast OVC038 15.2 6.2 55% 76.02 0.0
01 00:55 SE 15 16.09 Overcast OVC038 15.2 6.1 55% 76 0.0
01 00:35 S 17 16.09 Overcast OVC038 15 6.1 56% 76.02 0.0
01 00:15 SE 19 16.09 Mostly Cloudy BKN040 15.6 6.6 55% 76.02 0.0
30 23:55 S 28 G 33 16.09 Fair CLR 15.7 6.6 23 15.7 55% 76 0.0
30 23:35 S 30 G 35 16.09 Partly Cloudy SCT110 16 6.5 54% 75.97 0.0
30 23:15 S 26 G 35 16.09 Mostly Cloudy BKN110 16.2 6.3 52% 75.97 0.0
30 22:55 S 30 G 37 16.09 Partly Cloudy SCT120 16.5 6.2 51% 76 0.0
30 22:35 S 26 G 31 16.09 Partly Cloudy SCT120 16.6 5.8 49% 75.97 0.0
30 22:15 S 28 16.09 Partly Cloudy SCT120 17 5.7 48% 75.97 0.0
30 21:55 S 30 G 43 16.09 Mostly Cloudy BKN120 17.1 5.6 47% 75.95 0.0
30 21:35 S 28 G 43 16.09 Mostly Cloudy BKN120 17.5 5.1 44% 75.92 0.0
30 21:15 S 33 G 44 16.09 Partly Cloudy and Breezy SCT120 18.1 4.1 40% 75.9 0.0
30 20:55 S 35 G 46 16.09 Fair and Breezy CLR 18.9 3.3 36% 75.87 0.0
30 20:35 S 35 G 43 16.09 Fair and Breezy CLR 19.6 3 33% 75.84 0.0
30 20:15 S 30 G 44 16.09 Fair CLR 20.5 1.1 28% 75.84 0.0
30 19:55 S 15 16.09 Fair CLR 21 -6.7 15% 75.82 0.0
30 19:35 S 17 16.09 Fair CLR 21.3 -6.5 15% 75.79 0.0
30 19:15 SW 22 G 39 16.09 Fair CLR 21.9 -6.3 15% 75.79 0.0
30 18:55 S 28 G 39 16.09 Partly Cloudy SCT120 22.5 -7.6 13% 75.77 0.0
30 18:35 SE 28 G 41 16.09 Mostly Cloudy BKN120 22.5 -8 12% 75.79 0.0
30 18:15 SE 19 G 48 16.09 Mostly Cloudy SCT070 SCT090 BKN120 22.2 -7.7 13% 75.79 0.0
30 17:55 SE 22 G 33 16.09 Overcast SCT070 SCT100 OVC120 22.5 -8.1 25 21.8 12% 75.79 0.0
30 17:35 SE 22 16.09 Overcast OVC110 22.9 -8.1 12% 75.77 0.0
30 17:15 SE 24 16.09 Mostly Cloudy BKN110 22.6 -8.9 11% 75.77 0.0
30 16:55 S 30 G 41 16.09 Partly Cloudy SCT120 23 -10.1 10% 75.77 0.0
30 16:35 SE 28 G 37 16.09 Partly Cloudy SCT120 22.9 -10.5 10% 75.82 0.0
30 16:15 S 26 G 39 16.09 Partly Cloudy SCT110 23.4 -10.8 9% 75.82 0.0
30 15:55 SE 35 G 44 16.09 Partly Cloudy and Breezy SCT120 23.5 -10.8 9% 75.82 0.0
30 15:35 S 24 G 35 16.09 Partly Cloudy SCT120 23.6 -10.7 9% 75.84 0.0
30 15:15 S 22 G 37 16.09 Fair CLR 23.6 -10.7 9% 75.87 0.0
30 14:55 SE 20 G 37 16.09 Partly Cloudy SCT120 23.3 -11 9% 75.87 0.0
30 14:35 SE 24 G 33 16.09 Partly Cloudy SCT120 23.9 -10.7 9% 24 75.87 0.0
30 14:15 SE 24 G 30 16.09 Partly Cloudy SCT120 23.7 -10.5 9% 75.9 0.0
30 13:55 E 20 G 41 16.09 Partly Cloudy SCT120 24 -10.3 9% 24 75.92 0.0
30 13:35 E 17 G 31 16.09 Partly Cloudy SCT120 24.2 -10.7 9% 24 75.95 0.0
30 13:15 E 9 16.09 Fair CLR 23.8 -10.4 9% 75.97 0.0
30 12:55 SE 13 G 26 16.09 Partly Cloudy SCT110 23.5 -10.5 9% 76.02 0.0
30 12:35 SE 7 G 26 16.09 Overcast OVC110 22.3 -11 10% 76.05 0.0
30 12:15 SE 13 16.09 Overcast OVC110 22.1 -10.6 10% 76.05 0.0
30 11:55 SE 11 16.09 Overcast OVC110 21.9 -10.6 22 14.8 10% 76.07 0.0
30 11:35 S 11 16.09 Overcast OVC100 21.4 -10.5 11% 76.1 0.0
30 11:15 E 9 16.09 Overcast OVC100 20.9 -11 11% 76.12 0.0
30 10:55 SE 9 16.09 Mostly Cloudy BKN100 20.9 -11 11% 76.12 0.0
30 10:35 NE 11 16.09 Fair CLR 20.4 -10.7 11% 76.12 0.0
30 10:15 E 9 16.09 Fair CLR 19.7 -10.5 12% 76.12 0.0
30 09:55 E 7 16.09 Fair CLR 19.2 -10.9 12% 76.15 0.0
30 09:35 E 6 16.09 Fair CLR 18.7 -11.2 12% 76.15 0.0
30 09:15 E 9 16.09 Fair CLR 18.3 -11 13% 76.15 0.0
30 08:55 E 7 16.09 Partly Cloudy SCT110 18 -12 12% 76.17 0.0
30 08:35 NE 6 16.09 Partly Cloudy SCT110 16.6 -12 13% 76.15 0.0
30 08:15 N 7 16.09 Fair CLR 17.7 -12.4 12% 76.15 0.0
30 07:55 Calm 16.09 Fair CLR 15.7 -12.3 13% 76.15 0.0
30 07:35 N 6 16.09 Fair CLR 15.3 -12.6 13% 76.15 0.0
30 07:15 Calm 16.09 Fair CLR 15.8 -13.2 12% 76.15 0.0
30 06:55 NW 7 16.09 Fair CLR 15.8 -13.3 12% 76.15 0.0
30 06:35 NW 6 16.09 Fair CLR 15 -13.3 13% 76.12 0.0
30 06:15 N 13 16.09 Fair CLR 15.7 -13.5 12% 76.1 0.0
30 05:35 N 11 16.09 Fair CLR 16.6 -13.6 11% 76.1 0.0
30 05:15 N 15 16.09 Fair CLR 16.2 -13.7 12% 76.1 0.0
30 04:55 N 13 16.09 Fair CLR 16.1 -13.2 12% 76.1 0.0
30 04:35 N 13 16.09 Fair CLR 16.5 -13.5 12% 76.1 0.0
30 04:15 N 11 16.09 Fair CLR 16.8 -13.5 11% 76.1 0.0
30 03:55 N 13 16.09 Fair CLR 17.3 -13.3 11% 76.12 0.0
30 03:35 N 13 16.09 Fair CLR 17.5 -13.4 11% 76.12 0.0
30 03:15 N 9 16.09 Fair CLR 18.7 -13.3 10% 76.1 0.0
30 02:55 N 11 G 28 16.09 Fair CLR 19.8 -13.3 9% 76.07 0.0
30 02:35 N 9 16.09 Fair CLR 19.7 -13.4 9% 76.1 0.0
30 02:15 NW 13 16.09 Fair CLR 19.1 -13.5 10% 76.12 0.0
30 01:55 Calm 16.09 Fair CLR 20.4 -13.7 9% 76.12 0.0
30 01:35 Calm 16.09 Fair CLR 19.7 -13.9 9% 76.12 0.0
30 01:15 E 11 16.09 Fair CLR 20.6 -14 9% 76.1 0.0
30 00:55 W 13 G 43 16.09 Fair CLR 21.3 -13.5 8% 76.1 0.0
30 00:35 W 37 G 50 16.09 Fair and Breezy CLR 21.5 -13.8 8% 76.02 0.0
30 00:15 W 31 G 44 16.09 Fair CLR 21.6 -14.2 8% 76.02 0.0
29 23:55 W 33 G 46 16.09 Fair and Breezy CLR 21.7 -14.8 26 17.7 7% 76.05 0.0
29 23:35 W 31 G 48 16.09 Fair CLR 21.9 -15.4 7% 76.05 0.0
29 23:15 W 31 G 43 16.09 Fair CLR 22.2 -15.7 7% 76.05 0.0
29 22:55 W 31 G 41 16.09 Fair CLR 22.1 -16 7% 76.05 0.0
29 22:35 W 20 G 28 16.09 Fair CLR 21.2 -16.1 7% 76.05 0.0
29 22:15 NW 6 16.09 Fair CLR 17.9 -17.5 8% 76.05 0.0
29 21:55 Calm 16.09 Fair CLR 18.3 -16.9 8% 76.05 0.0
29 21:35 NW 6 16.09 Fair CLR 18.8 -17.4 7% 76.02 0.0
29 21:15 SW 6 16.09 Fair CLR 19.5 -16.6 7% 76 0.0
29 20:55 Calm 16.09 Fair CLR 20 -17 7% 75.97 0.0
29 20:35 Calm 16.09 Fair CLR 19.9 -15.8 8% 76 0.0
29 20:15 SE 6 16.09 Fair CLR 21 -15.7 7% 75.97 0.0
29 19:55 SE 11 16.09 Fair CLR 22 -16.2 6% 75.95 0.0
29 19:35 S 20 G 30 16.09 Fair CLR 23.1 -17.4 5% 75.92 0.0
29 19:15 S 24 16.09 Fair CLR 24 -18.1 5% 23 75.95 0.0
29 18:55 S 20 G 33 16.09 Fair CLR 24.7 -17.6 5% 24 75.92 0.0
29 18:35 S 28 G 39 16.09 Fair CLR 25.5 -16.4 5% 25 75.92 0.0
29 18:15 S 26 G 31 16.09 Fair CLR 25.9 -15.6 5% 25 75.95 0.0
29 17:55 SE 20 16.09 Fair CLR 25.6 -13.9 27.4 23 6% 25 75.97 0.0
29 17:35 SE 24 16.09 Fair CLR 25.8 -13.5 6% 25 75.95 0.0
29 17:15 SE 30 G 37 16.09 Fair CLR 26.6 -14.2 6% 25 75.97 0.0
Date Time (mdt) Wind (kph) Vis. (km) Weather Sky Cond. Air Dwpt Max. Min. Relative Humidity Wind Chill (°C) Heat Index (°C) altimeter (cm) sea level (mb) 1 hr 3 hr 6 hr
6 hour
Temperature (ºC) Pressure Precipitation (cm)